Time;durP1;ratioP1;P1;durP2;ratioP2;P2;SDS_P1;SDS_P2;PMS_P1;PMS_P2;Temp;Humidity;BMP_temperature;BMP_pressure;BME280_temperature;BME280_humidity;BME280_pressure;Samples;Min_cycle;Max_cycle;Signal;HPM_P1;HPM_P2
2024/03/12 00:01:08;;;;;;;8.95;4.60;;;;;;;8.31;98.11;100067.94;5135780;28;20034;-72
2024/03/12 00:03:42;;;;;;;7.97;3.97;;;;;;;8.32;97.34;100072.22;5137211;28;20438;-72
2024/03/12 00:06:12;;;;;;;7.35;4.22;;;;;;;8.27;96.42;100074.16;5134216;28;20027;-72
2024/03/12 00:08:43;;;;;;;7.25;4.40;;;;;;;8.18;96.12;100074.44;5132171;28;20259;-73
2024/03/12 00:11:13;;;;;;;7.50;4.40;;;;;;;8.23;96.94;100076.91;5135937;28;20487;-72
2024/03/12 00:13:44;;;;;;;9.20;4.63;;;;;;;8.25;95.85;100081.13;5136979;28;20238;-72
2024/03/12 00:16:14;;;;;;;7.20;4.13;;;;;;;8.09;94.92;100079.94;5134937;28;20038;-72
2024/03/12 00:18:44;;;;;;;7.68;4.07;;;;;;;8.01;96.13;100081.94;5136147;28;20229;-72
2024/03/12 00:21:15;;;;;;;8.25;4.07;;;;;;;7.88;96.07;100085.00;5136412;28;20441;-73
2024/03/12 00:23:47;;;;;;;8.85;4.68;;;;;;;7.91;95.90;100085.72;5154269;28;20027;-72
2024/03/12 00:26:18;;;;;;;8.40;4.63;;;;;;;7.79;96.23;100086.16;5136860;28;20486;-72
2024/03/12 00:28:48;;;;;;;8.38;4.38;;;;;;;7.66;96.36;100084.84;5137421;28;20100;-72
2024/03/12 00:31:18;;;;;;;7.50;4.28;;;;;;;7.57;97.73;100095.53;5135226;28;20490;-71
2024/03/12 00:33:49;;;;;;;7.20;3.88;;;;;;;7.54;98.65;100098.19;5138692;28;20310;-72
2024/03/12 00:36:19;;;;;;;9.02;4.70;;;;;;;7.51;97.84;100100.06;5137549;28;20034;-72
2024/03/12 00:38:49;;;;;;;9.35;4.55;;;;;;;7.47;98.40;100104.50;5156142;28;20262;-72
2024/03/12 00:41:21;;;;;;;8.10;4.45;;;;;;;7.41;98.79;100099.50;5140727;28;20034;-73
2024/03/12 00:43:52;;;;;;;7.97;4.70;;;;;;;7.42;99.30;100096.00;5158361;28;20486;-72
2024/03/12 00:46:22;;;;;;;8.65;4.70;;;;;;;7.42;99.80;100096.00;5145566;28;20026;-72
2024/03/12 00:48:53;;;;;;;8.75;4.88;;;;;;;7.29;100.00;100092.06;5155221;28;20044;-72
2024/03/12 00:51:24;;;;;;;9.68;4.68;;;;;;;7.34;100.00;100099.72;5162605;28;20026;-72
2024/03/12 00:53:54;;;;;;;8.82;4.43;;;;;;;7.32;100.00;100091.97;5148794;28;20027;-72
2024/03/12 00:56:27;;;;;;;13.55;4.65;;;;;;;7.29;100.00;100094.66;5142486;28;20538;-72
2024/03/12 00:58:57;;;;;;;11.63;5.15;;;;;;;7.29;100.00;100093.81;5161500;28;20114;-72
2024/03/12 01:01:28;;;;;;;9.02;5.00;;;;;;;7.30;100.00;100095.50;5142338;28;20054;-72
2024/03/12 01:03:59;;;;;;;8.25;4.30;;;;;;;7.35;100.00;100094.47;5162228;28;20118;-72
2024/03/12 01:06:29;;;;;;;7.40;4.72;;;;;;;7.30;100.00;100083.38;5144235;28;20022;-69
2024/03/12 01:09:03;;;;;;;8.30;4.18;;;;;;;7.05;100.00;100091.06;5146215;28;20623;-71
2024/03/12 01:11:33;;;;;;;7.57;4.10;;;;;;;6.84;100.00;100089.97;5141871;28;20029;-72
2024/03/12 01:14:05;;;;;;;7.80;4.15;;;;;;;6.83;100.00;100090.00;5139083;28;20393;-72
2024/03/12 01:16:35;;;;;;;7.00;4.38;;;;;;;6.84;100.00;100091.69;5158434;28;20015;-71
2024/03/12 01:19:07;;;;;;;8.45;4.15;;;;;;;6.69;100.00;100093.00;5144522;28;20029;-72
2024/03/12 01:21:40;;;;;;;8.13;4.25;;;;;;;6.64;100.00;100101.78;5140917;28;20423;-72
2024/03/12 01:24:12;;;;;;;7.18;4.50;;;;;;;6.69;100.00;100100.78;5141815;28;20033;-72
2024/03/12 01:26:44;;;;;;;6.85;4.30;;;;;;;6.79;100.00;100112.59;5139261;28;20050;-72
2024/03/12 01:29:16;;;;;;;12.77;4.50;;;;;;;6.73;100.00;100104.97;5141818;28;20053;-72
2024/03/12 01:31:47;;;;;;;8.05;4.53;;;;;;;6.56;100.00;100101.16;5142388;28;20349;-73
2024/03/12 01:34:19;;;;;;;9.10;4.50;;;;;;;6.54;100.00;100106.38;5138378;28;20034;-72
2024/03/12 01:36:49;;;;;;;7.78;4.50;;;;;;;6.63;100.00;100110.47;5156226;28;20030;-72
2024/03/12 01:39:26;;;;;;;9.75;5.10;;;;;;;6.71;100.00;100108.50;5144553;28;20034;-72
2024/03/12 01:41:56;;;;;;;8.30;4.57;;;;;;;6.72;98.65;100105.00;5141230;28;20053;-72
2024/03/12 01:44:26;;;;;;;6.75;4.10;;;;;;;6.70;99.56;100104.22;5136692;28;20035;-72
2024/03/12 01:46:56;;;;;;;10.43;4.82;;;;;;;6.77;97.74;100113.53;5145578;28;20561;-72
2024/03/12 01:49:27;;;;;;;10.45;4.78;;;;;;;6.72;97.77;100118.00;5122960;28;20046;-72
2024/03/12 01:51:58;;;;;;;8.32;4.43;;;;;;;6.82;95.12;100114.25;5149651;28;20035;-72
2024/03/12 01:54:28;;;;;;;8.27;4.53;;;;;;;6.61;95.56;100123.47;5140492;28;20109;-72
2024/03/12 01:56:59;;;;;;;9.55;4.72;;;;;;;6.42;96.47;100121.44;5139849;28;20018;-73
2024/03/12 01:59:30;;;;;;;7.05;4.13;;;;;;;6.21;97.90;100117.63;5144250;28;20033;-72
2024/03/12 02:02:00;;;;;;;8.55;4.03;;;;;;;6.14;100.00;100120.41;5144432;28;20112;-71
2024/03/12 02:04:30;;;;;;;6.63;3.95;;;;;;;6.23;100.00;100125.41;5139002;28;20034;-72
2024/03/12 02:07:01;;;;;;;8.73;4.00;;;;;;;6.10;100.00;100122.22;5140693;28;20026;-72
2024/03/12 02:09:31;;;;;;;7.63;4.30;;;;;;;6.18;100.00;100127.22;5153864;28;20033;-71
2024/03/12 02:12:01;;;;;;;7.18;4.32;;;;;;;6.10;100.00;100117.03;5140513;28;20065;-71
2024/03/12 02:14:32;;;;;;;7.60;4.68;;;;;;;6.25;100.00;100119.25;5141696;28;20504;-72
2024/03/12 02:17:05;;;;;;;8.50;4.40;;;;;;;6.11;100.00;100128.28;5140768;28;20051;-72
2024/03/12 02:19:35;;;;;;;8.52;4.50;;;;;;;6.05;100.00;100125.84;5141045;28;20030;-72
2024/03/12 02:22:05;;;;;;;9.40;4.65;;;;;;;6.18;100.00;100132.41;5154344;28;20589;-72
2024/03/12 02:24:36;;;;;;;9.68;4.50;;;;;;;6.08;100.00;100136.16;5142128;28;20026;-72
2024/03/12 02:27:06;;;;;;;9.95;4.43;;;;;;;6.10;100.00;100134.38;5139457;28;20038;-72
2024/03/12 02:29:36;;;;;;;7.00;4.28;;;;;;;6.16;100.00;100129.88;5138254;28;20102;-71
2024/03/12 02:32:07;;;;;;;9.07;4.25;;;;;;;6.11;100.00;100133.47;5136737;28;20022;-72
2024/03/12 02:34:37;;;;;;;8.55;4.35;;;;;;;6.21;100.00;100137.53;5141106;28;20030;-72
2024/03/12 02:37:07;;;;;;;8.63;3.95;;;;;;;6.15;100.00;100137.69;5141672;28;20521;-72
2024/03/12 02:39:37;;;;;;;8.30;4.40;;;;;;;6.16;100.00;100134.19;5138752;28;20449;-72
2024/03/12 02:42:08;;;;;;;7.55;4.53;;;;;;;6.10;100.00;100130.00;5140551;28;20037;-70
2024/03/12 02:44:38;;;;;;;7.63;4.00;;;;;;;6.20;100.00;100130.63;5142590;28;20029;-72
2024/03/12 02:47:09;;;;;;;7.82;4.30;;;;;;;6.23;100.00;100135.78;5140626;28;20022;-71
2024/03/12 02:49:39;;;;;;;8.98;4.63;;;;;;;6.18;100.00;100132.41;5141776;28;20525;-72
2024/03/12 02:52:11;;;;;;;8.20;4.45;;;;;;;6.22;100.00;100136.66;5156272;28;20398;-72
2024/03/12 02:54:41;;;;;;;10.40;4.95;;;;;;;6.23;100.00;100136.59;5135885;28;20104;-72
2024/03/12 02:57:11;;;;;;;11.13;4.30;;;;;;;6.30;100.00;100142.50;5141786;28;20027;-72
2024/03/12 02:59:42;;;;;;;10.48;4.63;;;;;;;6.35;100.00;100138.03;5141532;28;20431;-72
2024/03/12 03:02:13;;;;;;;8.40;4.45;;;;;;;6.33;100.00;100142.41;5153346;28;20042;-73
2024/03/12 03:04:44;;;;;;;8.40;4.30;;;;;;;6.41;100.00;100145.69;5141542;28;20089;-72
2024/03/12 03:07:17;;;;;;;8.50;3.95;;;;;;;6.27;100.00;100146.00;5141415;28;20026;-72
2024/03/12 03:09:47;;;;;;;7.28;4.65;;;;;;;6.23;100.00;100146.16;5141696;28;20042;-72
2024/03/12 03:12:17;;;;;;;9.00;4.80;;;;;;;6.14;100.00;100148.97;5155681;28;20045;-72
2024/03/12 03:14:47;;;;;;;9.35;4.53;;;;;;;6.06;100.00;100149.13;5137228;28;20953;-72
2024/03/12 03:17:18;;;;;;;9.35;4.53;;;;;;;6.07;100.00;100147.41;5150923;28;20173;-72
2024/03/12 03:19:48;;;;;;;10.25;4.82;;;;;;;5.97;100.00;100145.91;5141357;28;20045;-72
2024/03/12 03:22:19;;;;;;;8.52;4.80;;;;;;;6.15;100.00;100138.56;5141419;28;20037;-72
2024/03/12 03:24:49;;;;;;;9.43;4.50;;;;;;;6.06;100.00;100149.13;5138515;28;20216;-73
2024/03/12 03:27:19;;;;;;;9.27;5.18;;;;;;;6.08;100.00;100146.53;5153263;28;20056;-72
2024/03/12 03:29:50;;;;;;;11.07;4.20;;;;;;;5.95;100.00;100142.50;5136931;28;20092;-72
2024/03/12 03:32:21;;;;;;;9.32;4.78;;;;;;;5.94;100.00;100151.19;5140443;28;20026;-72
2024/03/12 03:34:52;;;;;;;7.85;4.57;;;;;;;6.02;100.00;100144.06;5141422;28;20035;-72
2024/03/12 03:37:22;;;;;;;8.88;4.45;;;;;;;5.96;100.00;100144.22;5139666;28;20453;-72
2024/03/12 03:39:53;;;;;;;11.48;4.40;;;;;;;6.17;98.50;100148.88;5141781;28;20030;-72
2024/03/12 03:42:24;;;;;;;9.32;4.32;;;;;;;5.93;95.25;100152.91;5139324;28;20387;-71
2024/03/12 03:44:54;;;;;;;9.07;4.63;;;;;;;5.91;98.00;100148.66;5142792;28;20435;-72
2024/03/12 03:47:28;;;;;;;7.45;4.10;;;;;;;6.00;96.41;100153.63;5139079;28;20033;-72
2024/03/12 03:49:58;;;;;;;8.15;4.60;;;;;;;5.84;97.02;100157.47;5136712;28;20054;-72
2024/03/12 03:52:28;;;;;;;8.80;4.55;;;;;;;5.69;97.14;100162.97;5137681;28;20030;-72
2024/03/12 03:54:59;;;;;;;8.80;4.40;;;;;;;5.67;99.30;100167.31;5142644;28;20035;-71
2024/03/12 03:57:29;;;;;;;7.50;4.35;;;;;;;5.66;99.40;100163.03;5138965;28;20288;-72
2024/03/12 03:59:59;;;;;;;7.60;4.28;;;;;;;5.63;100.00;100171.75;5137832;28;20031;-72
2024/03/12 04:02:30;;;;;;;7.10;4.00;;;;;;;5.53;100.00;100179.72;5141572;28;21291;-73
2024/03/12 04:05:01;;;;;;;8.48;4.10;;;;;;;5.43;100.00;100175.66;5140369;28;20034;-72
2024/03/12 04:07:32;;;;;;;8.18;4.63;;;;;;;5.59;100.00;100171.84;5141920;28;20029;-70
2024/03/12 04:10:02;;;;;;;9.20;4.60;;;;;;;5.55;100.00;100186.59;5138273;28;20034;-71
2024/03/12 04:12:33;;;;;;;8.48;4.53;;;;;;;5.48;100.00;100186.75;5132159;28;20462;-72
2024/03/12 04:15:04;;;;;;;9.25;5.07;;;;;;;5.53;100.00;100187.50;5138722;28;20072;-72
2024/03/12 04:17:36;;;;;;;6.65;4.30;;;;;;;5.62;100.00;100187.31;5138284;28;20054;-71
2024/03/12 04:20:10;;;;;;;8.20;4.63;;;;;;;5.54;100.00;100189.25;5153415;28;20037;-72
2024/03/12 04:22:43;;;;;;;8.00;4.47;;;;;;;5.59;100.00;100192.56;5142194;28;20502;-72
2024/03/12 04:25:15;;;;;;;8.25;4.20;;;;;;;5.55;100.00;100201.31;5146406;28;20034;-68
2024/03/12 04:27:45;;;;;;;11.35;4.93;;;;;;;5.48;100.00;100202.31;5140360;28;20027;-72
2024/03/12 04:30:15;;;;;;;8.48;4.60;;;;;;;5.59;100.00;100201.19;5138526;28;20453;-72
2024/03/12 04:32:47;;;;;;;10.23;4.28;;;;;;;5.38;100.00;100203.41;5137101;28;20286;-72
2024/03/12 04:35:17;;;;;;;7.45;4.18;;;;;;;5.40;100.00;100199.03;5159963;28;20038;-72
2024/03/12 04:37:50;;;;;;;8.15;4.20;;;;;;;5.52;100.00;100207.41;5144258;28;20033;-72
2024/03/12 04:40:22;;;;;;;8.00;4.50;;;;;;;5.45;100.00;100203.25;5154769;28;20654;-72
2024/03/12 04:42:53;;;;;;;18.25;7.88;;;;;;;5.40;100.00;100202.47;5138774;28;20035;-72
2024/03/12 04:45:24;;;;;;;9.52;5.13;;;;;;;5.47;100.00;100198.88;5157936;28;20030;-71
2024/03/12 04:47:55;;;;;;;7.63;4.80;;;;;;;5.42;100.00;100205.03;5142749;28;20034;-72
2024/03/12 04:50:25;;;;;;;7.30;4.13;;;;;;;5.64;100.00;100212.34;5158004;28;20035;-72
2024/03/12 04:52:55;;;;;;;8.63;4.55;;;;;;;5.54;100.00;100212.56;5140992;28;20257;-72
2024/03/12 04:55:25;;;;;;;8.15;4.43;;;;;;;5.57;100.00;100210.75;5145570;28;20371;-72
2024/03/12 04:57:56;;;;;;;8.43;4.47;;;;;;;5.53;100.00;100219.47;5140543;28;20054;-69
2024/03/12 05:00:28;;;;;;;8.35;4.57;;;;;;;5.58;100.00;100216.78;5158146;28;20470;-71
2024/03/12 05:03:00;;;;;;;8.70;4.03;;;;;;;5.64;100.00;100221.84;5139883;28;20510;-71
2024/03/12 05:05:30;;;;;;;7.30;4.28;;;;;;;5.70;100.00;100224.28;5139355;28;20022;-72
2024/03/12 05:08:00;;;;;;;9.38;4.97;;;;;;;5.78;100.00;100224.97;5156840;28;20398;-71
2024/03/12 05:10:31;;;;;;;8.02;4.50;;;;;;;5.76;100.00;100226.75;5139284;28;20475;-72
2024/03/12 05:13:01;;;;;;;6.70;4.45;;;;;;;5.71;100.00;100229.44;5157158;28;20035;-73
2024/03/12 05:15:31;;;;;;;9.30;5.03;;;;;;;5.79;100.00;100239.69;5141962;28;20490;-72
2024/03/12 05:18:02;;;;;;;7.60;4.57;;;;;;;5.77;100.00;100238.84;5141727;28;20090;-72
2024/03/12 05:20:33;;;;;;;10.32;4.55;;;;;;;5.79;100.00;100237.09;5138853;28;20104;-72
2024/03/12 05:23:04;;;;;;;9.63;5.00;;;;;;;5.87;100.00;100228.25;5139097;28;20279;-73
2024/03/12 05:25:41;;;;;;;9.50;4.93;;;;;;;6.00;100.00;100244.38;5141650;28;20073;-72
2024/03/12 05:28:12;;;;;;;9.05;4.80;;;;;;;5.87;100.00;100245.53;5143738;28;20022;-72
2024/03/12 05:30:42;;;;;;;11.20;5.28;;;;;;;5.71;100.00;100244.16;5136536;28;20039;-72
2024/03/12 05:33:14;;;;;;;10.65;4.80;;;;;;;5.67;100.00;100248.56;5139552;28;20375;-72
2024/03/12 05:35:47;;;;;;;10.80;5.10;;;;;;;5.67;100.00;100247.69;5141286;28;20026;-72
2024/03/12 05:38:35;;;;;;;10.07;5.15;;;;;;;5.64;100.00;100247.75;5139010;28;20034;-73
2024/03/12 05:49:19;;;;;;;9.52;4.43;;;;;;;6.01;100.00;100254.75;5140291;28;20057;-73
2024/03/12 05:51:52;;;;;;;8.23;4.93;;;;;;;6.05;100.00;100251.19;5134216;28;20034;-72
2024/03/12 05:54:23;;;;;;;8.05;5.25;;;;;;;6.07;100.00;100253.75;5137422;28;20050;-72
2024/03/12 05:56:54;;;;;;;8.13;4.70;;;;;;;6.12;100.00;100265.72;5156915;28;20042;-73
2024/03/12 05:59:25;;;;;;;10.18;5.10;;;;;;;6.33;100.00;100261.78;5125065;28;20569;-73
2024/03/12 06:01:56;;;;;;;7.35;4.55;;;;;;;6.44;100.00;100259.78;5157208;28;20113;-72
2024/03/12 06:04:31;;;;;;;14.48;4.95;;;;;;;6.55;100.00;100265.56;5140151;28;20033;-73
2024/03/12 06:07:02;;;;;;;9.13;4.22;;;;;;;6.67;100.00;100270.47;5139671;28;20042;-73
2024/03/12 06:09:32;;;;;;;10.02;5.18;;;;;;;6.62;100.00;100277.50;5154214;28;20031;-71
2024/03/12 06:12:03;;;;;;;9.98;4.80;;;;;;;6.65;100.00;100280.03;5140475;28;20030;-72
2024/03/12 06:14:35;;;;;;;7.10;4.32;;;;;;;6.63;100.00;100277.47;5138319;28;20463;-73
2024/03/12 06:17:07;;;;;;;13.20;4.60;;;;;;;6.57;100.00;100281.97;5151941;28;20027;-72
2024/03/12 06:19:37;;;;;;;8.95;5.00;;;;;;;6.57;100.00;100284.56;5140895;28;20030;-72
2024/03/12 06:22:08;;;;;;;9.27;5.10;;;;;;;6.76;100.00;100283.22;5141111;28;20405;-72
2024/03/12 06:24:39;;;;;;;9.20;5.10;;;;;;;6.88;100.00;100288.09;5138987;28;20406;-73
2024/03/12 06:27:09;;;;;;;8.63;4.57;;;;;;;6.99;100.00;100289.56;5140904;28;20030;-73
2024/03/12 06:29:39;;;;;;;6.88;4.38;;;;;;;7.10;100.00;100295.31;5138256;28;20499;-72
2024/03/12 06:32:10;;;;;;;8.85;5.10;;;;;;;7.22;100.00;100300.19;5139160;28;20160;-72
2024/03/12 06:34:41;;;;;;;12.18;6.43;;;;;;;7.34;100.00;100305.91;5138926;28;20436;-70
2024/03/12 06:37:11;;;;;;;10.70;5.47;;;;;;;7.31;100.00;100306.00;5139385;28;20034;-73
2024/03/12 06:39:44;;;;;;;8.68;4.95;;;;;;;7.21;100.00;100308.88;5137662;28;20068;-73
2024/03/12 06:42:19;;;;;;;7.72;4.28;;;;;;;7.60;100.00;100302.59;5142467;28;20058;-70
2024/03/12 06:44:52;;;;;;;9.88;4.88;;;;;;;7.58;100.00;100306.97;5139038;28;20026;-71
2024/03/12 06:47:26;;;;;;;9.02;4.57;;;;;;;7.57;100.00;100313.06;5138719;28;20042;-73
2024/03/12 06:49:58;;;;;;;7.72;4.50;;;;;;;7.60;100.00;100311.25;5138886;28;20079;-73
2024/03/12 06:52:28;;;;;;;9.32;5.00;;;;;;;7.49;100.00;100315.88;5135558;28;20054;-72
2024/03/12 06:55:00;;;;;;;9.52;4.68;;;;;;;7.59;100.00;100322.56;5139722;28;20383;-72
2024/03/12 06:57:34;;;;;;;8.13;4.80;;;;;;;7.59;100.00;100327.75;5188272;23;20506;-74
2024/03/12 07:00:09;;;;;;;7.80;4.55;;;;;;;7.72;100.00;100323.06;5129948;28;20756;-74
2024/03/12 07:02:39;;;;;;;11.25;4.93;;;;;;;7.70;100.00;100325.69;5132365;28;20125;-73
2024/03/12 07:05:09;;;;;;;8.90;4.47;;;;;;;7.93;100.00;100327.66;5134465;28;20132;-74
2024/03/12 07:07:43;;;;;;;9.07;4.78;;;;;;;8.01;100.00;100336.09;5132393;28;20034;-74
2024/03/12 07:10:16;;;;;;;8.13;4.50;;;;;;;8.17;100.00;100337.31;5132975;28;20079;-74
2024/03/12 07:12:47;;;;;;;9.10;4.40;;;;;;;8.41;100.00;100339.25;5131001;28;20402;-74
2024/03/12 07:15:18;;;;;;;8.07;4.57;;;;;;;8.54;100.00;100340.56;5134878;28;20033;-74
2024/03/12 07:17:48;;;;;;;9.55;4.75;;;;;;;8.85;100.00;100336.94;5140769;28;20146;-74
2024/03/12 07:20:20;;;;;;;9.05;4.82;;;;;;;9.10;100.00;100337.00;5139774;28;20038;-74
2024/03/12 07:22:51;;;;;;;9.85;4.80;;;;;;;9.19;96.95;100330.56;5137600;28;20074;-74
2024/03/12 07:25:21;;;;;;;8.13;4.57;;;;;;;9.39;94.51;100333.34;5140489;28;20034;-74
2024/03/12 07:27:55;;;;;;;6.90;4.28;;;;;;;9.48;92.14;100332.19;5139179;28;20031;-73
2024/03/12 07:30:26;;;;;;;9.70;4.22;;;;;;;9.60;91.74;100336.94;5139658;28;20621;-74
2024/03/12 07:32:57;;;;;;;7.72;4.38;;;;;;;9.62;91.38;100340.38;5135357;28;20034;-73
2024/03/12 07:35:28;;;;;;;9.07;4.80;;;;;;;9.86;91.61;100335.09;5142269;28;20112;-74
2024/03/12 07:38:00;;;;;;;6.93;4.30;;;;;;;9.87;91.34;100335.97;5138958;28;20105;-74
2024/03/12 07:40:31;;;;;;;10.25;4.22;;;;;;;9.95;89.32;100341.75;5140719;28;20030;-74
2024/03/12 07:43:04;;;;;;;7.28;4.07;;;;;;;9.93;90.08;100347.03;5134291;28;20493;-74
2024/03/12 07:45:35;;;;;;;8.35;4.57;;;;;;;9.96;89.40;100340.88;5134614;28;20178;-73
2024/03/12 07:48:05;;;;;;;10.38;4.72;;;;;;;9.91;90.18;100342.75;5129857;28;20119;-74
2024/03/12 07:50:36;;;;;;;6.70;3.92;;;;;;;9.92;88.58;100347.94;5137153;28;20133;-74
2024/03/12 07:53:10;;;;;;;9.60;4.00;;;;;;;9.87;88.77;100351.63;5141539;28;20084;-74
2024/03/12 07:55:43;;;;;;;8.38;4.57;;;;;;;9.93;88.94;100348.78;5139782;28;20125;-74
2024/03/12 07:58:13;;;;;;;8.63;4.25;;;;;;;9.95;88.74;100347.81;5142271;28;20027;-74
2024/03/12 08:00:43;;;;;;;7.50;4.35;;;;;;;9.97;89.86;100351.22;5139218;28;20509;-74
2024/03/12 08:03:14;;;;;;;8.27;4.03;;;;;;;10.00;90.36;100353.72;5137533;28;20127;-74
2024/03/12 08:05:45;;;;;;;6.68;4.03;;;;;;;10.05;90.07;100361.44;5138554;28;20037;-73
2024/03/12 08:08:16;;;;;;;9.57;4.70;;;;;;;9.99;88.38;100362.47;5143104;28;20404;-74
2024/03/12 08:10:46;;;;;;;7.85;4.28;;;;;;;9.95;87.45;100366.09;5139530;28;20146;-73
2024/03/12 08:13:16;;;;;;;8.90;3.97;;;;;;;9.95;88.28;100363.50;5143304;28;20031;-73
2024/03/12 08:15:47;;;;;;;8.98;3.83;;;;;;;9.94;88.87;100368.75;5140353;28;20387;-73
2024/03/12 08:18:17;;;;;;;11.35;4.40;;;;;;;9.97;89.14;100363.44;5129693;28;20068;-74
2024/03/12 08:20:47;;;;;;;9.55;4.50;;;;;;;9.96;87.59;100356.53;5141327;28;20699;-74
2024/03/12 08:23:19;;;;;;;7.90;5.07;;;;;;;10.17;87.53;100363.59;5143866;28;20093;-74
2024/03/12 08:25:50;;;;;;;9.80;4.68;;;;;;;10.16;86.73;100364.50;5140109;28;20045;-74
2024/03/12 08:28:21;;;;;;;7.03;4.30;;;;;;;10.27;87.23;100372.78;5143790;28;20026;-73
2024/03/12 08:30:51;;;;;;;8.77;4.55;;;;;;;10.23;87.65;100366.84;5142687;28;20402;-74
2024/03/12 08:33:22;;;;;;;8.75;4.50;;;;;;;10.28;87.79;100375.34;5142261;28;20034;-74
2024/03/12 08:35:52;;;;;;;8.68;4.50;;;;;;;10.28;87.66;100375.34;5139398;28;20026;-74
2024/03/12 08:38:23;;;;;;;9.13;4.95;;;;;;;10.42;87.61;100380.03;5141573;28;20030;-74
2024/03/12 08:40:55;;;;;;;11.80;5.53;;;;;;;10.43;88.50;100384.34;5140980;28;20025;-74
2024/03/12 08:43:26;;;;;;;8.05;4.88;;;;;;;10.54;87.87;100384.81;5140351;28;20473;-74
2024/03/12 08:45:57;;;;;;;12.00;4.95;;;;;;;10.60;87.96;100384.56;5142034;28;20043;-74
2024/03/12 08:48:28;;;;;;;9.40;4.88;;;;;;;10.56;87.89;100390.81;5140773;28;20038;-74
2024/03/12 08:50:58;;;;;;;9.88;5.35;;;;;;;10.65;87.58;100387.84;5142740;28;20049;-74
2024/03/12 08:53:33;;;;;;;10.23;5.05;;;;;;;10.61;87.68;100391.47;5140469;28;20085;-74
2024/03/12 08:56:03;;;;;;;9.55;4.75;;;;;;;10.61;87.26;100397.56;5146858;28;20029;-74
2024/03/12 08:58:34;;;;;;;9.23;5.28;;;;;;;10.65;86.65;100391.31;5141833;28;20026;-74
2024/03/12 09:01:04;;;;;;;10.43;5.40;;;;;;;10.82;86.83;100394.13;5147412;28;20035;-74
2024/03/12 09:03:36;;;;;;;9.05;4.93;;;;;;;10.83;86.28;100390.59;5143206;28;20098;-74
2024/03/12 09:06:08;;;;;;;11.05;5.63;;;;;;;10.94;86.69;100398.00;5138161;28;20519;-74
2024/03/12 09:08:39;;;;;;;10.65;5.30;;;;;;;10.91;86.43;100398.13;5142049;28;20043;-74
2024/03/12 09:11:09;;;;;;;16.05;5.63;;;;;;;10.94;86.55;100403.22;5138891;28;20399;-74
2024/03/12 09:13:40;;;;;;;11.77;5.88;;;;;;;11.04;85.92;100411.50;5147152;28;20106;-74
2024/03/12 09:16:12;;;;;;;10.30;5.85;;;;;;;11.02;86.26;100414.25;5140497;28;20113;-74
2024/03/12 09:18:43;;;;;;;13.95;5.93;;;;;;;10.88;86.42;100413.94;5138747;28;20090;-74
2024/03/12 09:21:14;;;;;;;11.57;6.40;;;;;;;10.96;85.54;100417.09;5139347;28;20317;-74
2024/03/12 09:23:45;;;;;;;10.35;6.28;;;;;;;11.19;85.25;100425.72;5140254;28;20038;-74
2024/03/12 09:26:15;;;;;;;11.95;6.00;;;;;;;11.13;86.31;100423.38;5138797;28;20027;-74
2024/03/12 09:28:46;;;;;;;14.65;6.20;;;;;;;11.15;85.40;100419.78;5139374;28;20038;-73
2024/03/12 09:31:18;;;;;;;9.40;6.00;;;;;;;11.29;85.49;100421.84;5141671;28;20295;-74
2024/03/12 09:33:51;;;;;;;11.07;6.22;;;;;;;11.18;84.45;100429.25;5138384;28;20114;-74
2024/03/12 09:36:21;;;;;;;10.48;6.68;;;;;;;11.31;85.70;100426.06;5144171;28;20417;-74
2024/03/12 09:38:53;;;;;;;10.73;6.28;;;;;;;11.33;84.52;100424.28;5138507;28;20034;-74
2024/03/12 09:41:25;;;;;;;9.18;6.07;;;;;;;11.38;83.79;100424.06;5139974;28;20069;-74
2024/03/12 09:43:56;;;;;;;11.18;6.55;;;;;;;11.56;84.31;100428.56;5136344;28;20030;-74
2024/03/12 09:46:26;;;;;;;10.15;6.70;;;;;;;11.33;84.46;100429.50;5139803;28;20038;-74
2024/03/12 09:48:56;;;;;;;12.27;7.07;;;;;;;11.56;83.82;100426.81;5139590;28;20107;-74
2024/03/12 09:51:27;;;;;;;16.65;7.25;;;;;;;11.62;83.97;100425.72;5144535;28;20026;-74
2024/03/12 09:53:58;;;;;;;16.05;7.68;;;;;;;11.65;84.03;100431.63;5140531;28;20069;-74
2024/03/12 09:56:29;;;;;;;12.88;6.70;;;;;;;11.81;84.40;100429.25;5141149;28;20037;-74
2024/03/12 09:59:00;;;;;;;12.90;7.30;;;;;;;12.27;82.87;100428.94;5136974;28;20034;-74
2024/03/12 10:01:30;;;;;;;13.75;7.90;;;;;;;12.18;82.86;100430.19;5137468;28;20501;-74
2024/03/12 10:04:01;;;;;;;12.93;7.38;;;;;;;12.33;82.75;100436.53;5140252;28;20327;-74
2024/03/12 10:06:31;;;;;;;16.55;8.23;;;;;;;12.56;81.33;100434.56;5138938;28;20027;-73
2024/03/12 10:09:01;;;;;;;12.55;7.40;;;;;;;12.39;81.62;100436.22;5139518;28;20036;-74
2024/03/12 10:11:33;;;;;;;17.15;8.18;;;;;;;12.59;81.71;100434.41;5139573;28;20022;-74
2024/03/12 10:14:03;;;;;;;13.15;7.85;;;;;;;12.93;80.66;100429.34;5139996;28;20113;-74
2024/03/12 10:16:34;;;;;;;16.05;8.23;;;;;;;13.00;79.96;100433.34;5140695;28;20129;-74
2024/03/12 10:19:09;;;;;;;16.48;9.48;;;;;;;12.94;80.06;100444.16;5137935;28;20282;-73
2024/03/12 10:21:45;;;;;;;17.48;9.35;;;;;;;12.82;80.76;100447.31;5137560;28;20498;-75
2024/03/12 10:24:21;;;;;;;;;;;;;;;12.87;80.05;100434.84;5142167;28;20038;-74
2024/03/12 10:27:01;;;;;;;16.58;8.80;;;;;;;12.99;79.93;100440.38;5139754;28;20407;-74
2024/03/12 10:29:38;;;;;;;17.42;8.82;;;;;;;12.71;80.09;100444.34;5143857;28;20035;-74
2024/03/12 10:32:29;;;;;;;16.00;8.98;;;;;;;12.72;79.95;100450.44;5140678;28;20030;-74
2024/03/12 10:35:00;;;;;;;20.38;10.45;;;;;;;12.83;80.67;100446.38;5137548;28;20026;-74
2024/03/12 10:37:34;;;;;;;22.25;11.32;;;;;;;12.93;80.27;100442.44;5139355;28;20106;-74
2024/03/12 10:40:23;;;;;;;18.15;10.38;;;;;;;12.93;80.51;100444.22;5139065;28;20029;-74
2024/03/12 10:42:57;;;;;;;18.35;10.10;;;;;;;12.91;80.91;100444.25;5141542;28;20058;-74
2024/03/12 10:45:31;;;;;;;18.10;9.38;;;;;;;12.95;81.60;100451.09;5140458;28;20474;-75
2024/03/12 10:48:06;;;;;;;18.30;9.55;;;;;;;12.88;81.21;100444.41;5136247;28;20332;-75
2024/03/12 10:50:37;;;;;;;20.05;10.25;;;;;;;12.82;82.36;100449.91;5139605;28;20103;-74
2024/03/12 10:53:11;;;;;;;60.08;23.63;;;;;;;12.73;82.15;100442.50;5136828;28;20087;-74
2024/03/12 10:55:41;;;;;;;27.10;12.60;;;;;;;12.76;81.86;100451.97;5140603;28;20482;-74
2024/03/12 10:58:14;;;;;;;20.73;10.38;;;;;;;12.65;82.37;100455.09;5135531;28;20046;-74
2024/03/12 11:00:44;;;;;;;33.22;14.70;;;;;;;12.70;81.39;100455.75;5123764;28;20034;-74
2024/03/12 11:03:17;;;;;;;21.38;11.38;;;;;;;12.55;82.49;100448.59;5138068;28;20560;-74
2024/03/12 11:05:49;;;;;;;18.83;9.88;;;;;;;12.63;82.52;100456.94;5143683;28;20018;-74
2024/03/12 11:08:20;;;;;;;19.10;10.20;;;;;;;12.49;82.18;100461.94;5136520;28;20117;-74
2024/03/12 11:10:52;;;;;;;17.83;10.18;;;;;;;12.54;82.53;100457.38;5141817;28;20149;-74
2024/03/12 11:13:23;;;;;;;21.67;10.38;;;;;;;12.53;83.42;100455.69;5135999;28;20033;-74
2024/03/12 11:15:57;;;;;;;19.30;10.82;;;;;;;12.55;83.30;100459.06;5139051;28;20030;-74
2024/03/12 11:18:34;;;;;;;24.83;11.23;;;;;;;12.60;82.93;100462.34;5135566;28;20112;-74
2024/03/12 11:21:05;;;;;;;27.38;13.77;;;;;;;12.43;82.95;100459.63;5135668;28;20035;-74
2024/03/12 11:23:36;;;;;;;23.02;12.40;;;;;;;12.66;83.15;100458.59;5139817;28;20025;-74
2024/03/12 11:26:06;;;;;;;25.48;13.50;;;;;;;12.60;83.09;100462.34;5137524;28;20057;-74
2024/03/12 11:28:48;;;;;;;20.50;10.80;;;;;;;12.62;82.94;100460.47;5140484;28;20038;-74
2024/03/12 11:31:19;;;;;;;17.83;10.48;;;;;;;12.55;83.20;100463.44;5139140;28;20533;-74
2024/03/12 11:33:54;;;;;;;21.60;10.77;;;;;;;12.40;83.33;100464.13;5140740;28;20026;-74
2024/03/12 11:36:24;;;;;;;25.88;12.10;;;;;;;12.56;84.18;100466.03;5143316;28;20041;-74
2024/03/12 11:38:58;;;;;;;26.90;11.63;;;;;;;12.49;83.33;100467.19;5144086;28;20494;-74
2024/03/12 11:41:59;;;;;;;17.13;9.27;;;;;;;12.59;83.97;100465.88;5144969;28;20030;-74
2024/03/12 11:44:49;;;;;;;20.08;10.63;;;;;;;12.39;84.63;100465.94;5142548;28;20464;-74
2024/03/12 11:47:28;;;;;;;16.23;9.30;;;;;;;12.37;84.29;100469.53;5143683;28;20453;-74
2024/03/12 11:49:59;;;;;;;18.20;9.98;;;;;;;12.29;84.36;100475.09;5143075;28;20088;-74
2024/03/12 11:52:31;;;;;;;20.65;10.75;;;;;;;12.08;84.92;100472.56;5145866;28;20053;-74